sensor_id;sensor_type;location;lat;lon;timestamp;P1;durP1;ratioP1;P2;durP2;ratioP2
76373;SDS011;65197;50.164;8.012;2023-08-07T00:02:23;6.35;;;2.50;;
76373;SDS011;65197;50.164;8.012;2023-08-07T00:04:48;6.78;;;2.67;;
76373;SDS011;65197;50.164;8.012;2023-08-07T00:07:13;7.97;;;2.70;;
76373;SDS011;65197;50.164;8.012;2023-08-07T00:09:39;4.82;;;2.28;;
76373;SDS011;65197;50.164;8.012;2023-08-07T00:12:04;5.50;;;3.00;;
76373;SDS011;65197;50.164;8.012;2023-08-07T00:14:30;7.70;;;2.72;;
76373;SDS011;65197;50.164;8.012;2023-08-07T00:16:55;9.20;;;2.30;;
76373;SDS011;65197;50.164;8.012;2023-08-07T00:19:21;10.00;;;2.40;;
76373;SDS011;65197;50.164;8.012;2023-08-07T00:21:46;9.40;;;2.65;;
76373;SDS011;65197;50.164;8.012;2023-08-07T00:24:11;6.32;;;2.75;;
76373;SDS011;65197;50.164;8.012;2023-08-07T00:26:37;8.52;;;2.78;;
76373;SDS011;65197;50.164;8.012;2023-08-07T00:29:02;6.05;;;2.80;;
76373;SDS011;65197;50.164;8.012;2023-08-07T00:31:27;4.15;;;2.40;;
76373;SDS011;65197;50.164;8.012;2023-08-07T00:33:56;6.20;;;2.97;;
76373;SDS011;65197;50.164;8.012;2023-08-07T00:36:22;8.30;;;3.10;;
76373;SDS011;65197;50.164;8.012;2023-08-07T00:38:48;7.97;;;2.78;;
76373;SDS011;65197;50.164;8.012;2023-08-07T00:41:13;6.03;;;2.63;;
76373;SDS011;65197;50.164;8.012;2023-08-07T00:43:39;8.10;;;3.67;;
76373;SDS011;65197;50.164;8.012;2023-08-07T00:46:04;13.13;;;3.65;;
76373;SDS011;65197;50.164;8.012;2023-08-07T00:48:30;8.23;;;3.28;;
76373;SDS011;65197;50.164;8.012;2023-08-07T00:50:56;10.60;;;3.35;;
76373;SDS011;65197;50.164;8.012;2023-08-07T00:53:22;8.45;;;3.42;;
76373;SDS011;65197;50.164;8.012;2023-08-07T00:55:48;6.47;;;3.22;;
76373;SDS011;65197;50.164;8.012;2023-08-07T00:58:13;8.07;;;3.30;;
76373;SDS011;65197;50.164;8.012;2023-08-07T01:00:39;11.30;;;4.10;;
76373;SDS011;65197;50.164;8.012;2023-08-07T01:03:06;7.78;;;4.10;;
76373;SDS011;65197;50.164;8.012;2023-08-07T01:05:32;10.85;;;3.70;;
76373;SDS011;65197;50.164;8.012;2023-08-07T01:07:58;6.97;;;3.35;;
76373;SDS011;65197;50.164;8.012;2023-08-07T01:10:34;10.25;;;3.83;;
76373;SDS011;65197;50.164;8.012;2023-08-07T01:13:19;6.68;;;3.70;;
76373;SDS011;65197;50.164;8.012;2023-08-07T01:15:53;7.25;;;3.30;;
76373;SDS011;65197;50.164;8.012;2023-08-07T01:18:24;8.13;;;3.45;;
76373;SDS011;65197;50.164;8.012;2023-08-07T01:20:50;8.70;;;3.85;;
76373;SDS011;65197;50.164;8.012;2023-08-07T01:23:16;9.00;;;3.80;;
76373;SDS011;65197;50.164;8.012;2023-08-07T01:25:41;11.55;;;3.63;;
76373;SDS011;65197;50.164;8.012;2023-08-07T01:28:25;11.63;;;3.50;;
76373;SDS011;65197;50.164;8.012;2023-08-07T01:30:59;10.95;;;3.75;;
76373;SDS011;65197;50.164;8.012;2023-08-07T01:33:37;15.73;;;4.40;;
76373;SDS011;65197;50.164;8.012;2023-08-07T01:36:16;10.23;;;4.07;;
76373;SDS011;65197;50.164;8.012;2023-08-07T01:38:41;11.13;;;4.50;;
76373;SDS011;65197;50.164;8.012;2023-08-07T01:41:08;10.98;;;4.40;;
76373;SDS011;65197;50.164;8.012;2023-08-07T01:43:34;12.57;;;5.13;;
76373;SDS011;65197;50.164;8.012;2023-08-07T01:45:59;13.70;;;4.75;;
76373;SDS011;65197;50.164;8.012;2023-08-07T01:48:25;11.13;;;4.57;;
76373;SDS011;65197;50.164;8.012;2023-08-07T01:50:50;9.35;;;4.70;;
76373;SDS011;65197;50.164;8.012;2023-08-07T01:53:16;10.32;;;5.70;;
76373;SDS011;65197;50.164;8.012;2023-08-07T01:55:41;12.25;;;5.25;;
76373;SDS011;65197;50.164;8.012;2023-08-07T01:58:06;13.27;;;4.90;;
76373;SDS011;65197;50.164;8.012;2023-08-07T02:00:32;17.95;;;5.60;;
76373;SDS011;65197;50.164;8.012;2023-08-07T02:02:57;11.98;;;4.72;;
76373;SDS011;65197;50.164;8.012;2023-08-07T02:05:22;13.85;;;4.70;;
76373;SDS011;65197;50.164;8.012;2023-08-07T02:07:48;10.15;;;5.90;;
76373;SDS011;65197;50.164;8.012;2023-08-07T02:10:13;17.98;;;5.07;;
76373;SDS011;65197;50.164;8.012;2023-08-07T02:12:39;13.45;;;5.85;;
76373;SDS011;65197;50.164;8.012;2023-08-07T02:15:04;12.30;;;5.00;;
76373;SDS011;65197;50.164;8.012;2023-08-07T02:17:30;12.50;;;4.93;;
76373;SDS011;65197;50.164;8.012;2023-08-07T02:19:56;13.27;;;5.57;;
76373;SDS011;65197;50.164;8.012;2023-08-07T02:22:21;10.32;;;5.65;;
76373;SDS011;65197;50.164;8.012;2023-08-07T02:24:47;11.15;;;5.38;;
76373;SDS011;65197;50.164;8.012;2023-08-07T02:27:12;12.13;;;5.43;;
76373;SDS011;65197;50.164;8.012;2023-08-07T02:29:38;12.88;;;6.68;;
76373;SDS011;65197;50.164;8.012;2023-08-07T02:32:03;8.35;;;5.05;;
76373;SDS011;65197;50.164;8.012;2023-08-07T02:34:29;11.43;;;5.65;;
76373;SDS011;65197;50.164;8.012;2023-08-07T02:36:55;11.25;;;5.55;;
76373;SDS011;65197;50.164;8.012;2023-08-07T02:39:20;11.23;;;5.03;;
76373;SDS011;65197;50.164;8.012;2023-08-07T02:41:46;10.65;;;5.20;;
76373;SDS011;65197;50.164;8.012;2023-08-07T02:44:11;12.45;;;5.10;;
76373;SDS011;65197;50.164;8.012;2023-08-07T02:46:37;16.15;;;5.40;;
76373;SDS011;65197;50.164;8.012;2023-08-07T02:49:02;11.82;;;5.70;;
76373;SDS011;65197;50.164;8.012;2023-08-07T02:51:28;10.80;;;4.43;;
76373;SDS011;65197;50.164;8.012;2023-08-07T02:53:53;10.00;;;5.40;;
76373;SDS011;65197;50.164;8.012;2023-08-07T02:56:18;10.95;;;5.13;;
76373;SDS011;65197;50.164;8.012;2023-08-07T02:58:44;14.02;;;5.07;;
76373;SDS011;65197;50.164;8.012;2023-08-07T03:01:09;14.15;;;5.20;;
76373;SDS011;65197;50.164;8.012;2023-08-07T03:03:36;13.57;;;5.53;;
76373;SDS011;65197;50.164;8.012;2023-08-07T03:06:02;14.20;;;5.32;;
76373;SDS011;65197;50.164;8.012;2023-08-07T03:08:28;8.55;;;5.45;;
76373;SDS011;65197;50.164;8.012;2023-08-07T03:10:55;11.65;;;5.10;;
76373;SDS011;65197;50.164;8.012;2023-08-07T03:13:22;9.90;;;4.38;;
76373;SDS011;65197;50.164;8.012;2023-08-07T03:15:47;9.63;;;4.78;;
76373;SDS011;65197;50.164;8.012;2023-08-07T03:18:15;10.48;;;4.45;;
76373;SDS011;65197;50.164;8.012;2023-08-07T03:20:41;12.07;;;4.70;;
76373;SDS011;65197;50.164;8.012;2023-08-07T03:23:06;11.40;;;4.60;;
76373;SDS011;65197;50.164;8.012;2023-08-07T03:25:32;9.98;;;5.00;;
76373;SDS011;65197;50.164;8.012;2023-08-07T03:27:57;9.07;;;3.90;;
76373;SDS011;65197;50.164;8.012;2023-08-07T03:30:22;9.25;;;4.80;;
76373;SDS011;65197;50.164;8.012;2023-08-07T03:32:48;16.25;;;5.15;;
76373;SDS011;65197;50.164;8.012;2023-08-07T03:35:13;9.02;;;4.88;;
76373;SDS011;65197;50.164;8.012;2023-08-07T03:37:38;9.45;;;4.32;;
76373;SDS011;65197;50.164;8.012;2023-08-07T03:40:04;10.18;;;4.90;;
76373;SDS011;65197;50.164;8.012;2023-08-07T03:42:30;10.60;;;4.38;;
76373;SDS011;65197;50.164;8.012;2023-08-07T03:44:55;8.60;;;4.25;;
76373;SDS011;65197;50.164;8.012;2023-08-07T03:47:21;10.60;;;4.57;;
76373;SDS011;65197;50.164;8.012;2023-08-07T03:49:46;10.63;;;4.00;;
76373;SDS011;65197;50.164;8.012;2023-08-07T03:52:11;9.90;;;4.35;;
76373;SDS011;65197;50.164;8.012;2023-08-07T03:54:37;8.65;;;4.50;;
76373;SDS011;65197;50.164;8.012;2023-08-07T03:57:02;11.10;;;5.75;;
76373;SDS011;65197;50.164;8.012;2023-08-07T03:59:28;8.93;;;4.03;;
76373;SDS011;65197;50.164;8.012;2023-08-07T04:01:53;9.73;;;4.78;;
76373;SDS011;65197;50.164;8.012;2023-08-07T04:04:18;16.20;;;5.00;;
76373;SDS011;65197;50.164;8.012;2023-08-07T04:06:44;8.52;;;4.80;;
76373;SDS011;65197;50.164;8.012;2023-08-07T04:09:09;10.10;;;4.63;;
76373;SDS011;65197;50.164;8.012;2023-08-07T04:11:35;9.60;;;4.55;;
76373;SDS011;65197;50.164;8.012;2023-08-07T04:14:01;11.85;;;4.85;;
76373;SDS011;65197;50.164;8.012;2023-08-07T04:16:26;14.18;;;5.28;;
76373;SDS011;65197;50.164;8.012;2023-08-07T04:18:52;7.63;;;4.50;;
76373;SDS011;65197;50.164;8.012;2023-08-07T04:21:17;11.70;;;4.47;;
76373;SDS011;65197;50.164;8.012;2023-08-07T04:23:43;9.60;;;4.53;;
76373;SDS011;65197;50.164;8.012;2023-08-07T04:26:08;9.90;;;4.35;;
76373;SDS011;65197;50.164;8.012;2023-08-07T04:28:33;7.97;;;4.28;;
76373;SDS011;65197;50.164;8.012;2023-08-07T04:30:59;8.27;;;4.30;;
76373;SDS011;65197;50.164;8.012;2023-08-07T04:33:24;8.30;;;4.55;;
76373;SDS011;65197;50.164;8.012;2023-08-07T04:35:49;13.55;;;5.53;;
76373;SDS011;65197;50.164;8.012;2023-08-07T04:38:15;11.05;;;4.85;;
76373;SDS011;65197;50.164;8.012;2023-08-07T04:40:44;7.68;;;4.90;;
76373;SDS011;65197;50.164;8.012;2023-08-07T04:43:17;10.98;;;4.88;;
76373;SDS011;65197;50.164;8.012;2023-08-07T04:45:45;11.98;;;4.93;;
76373;SDS011;65197;50.164;8.012;2023-08-07T04:48:11;9.73;;;4.63;;
76373;SDS011;65197;50.164;8.012;2023-08-07T04:50:36;12.18;;;5.43;;
76373;SDS011;65197;50.164;8.012;2023-08-07T04:53:02;14.07;;;4.63;;
76373;SDS011;65197;50.164;8.012;2023-08-07T04:55:29;11.20;;;5.15;;
76373;SDS011;65197;50.164;8.012;2023-08-07T04:57:55;11.70;;;4.85;;
76373;SDS011;65197;50.164;8.012;2023-08-07T05:00:21;10.60;;;4.75;;
76373;SDS011;65197;50.164;8.012;2023-08-07T05:02:47;10.00;;;5.60;;
76373;SDS011;65197;50.164;8.012;2023-08-07T05:05:15;14.13;;;4.97;;
76373;SDS011;65197;50.164;8.012;2023-08-07T05:07:41;12.93;;;4.57;;
76373;SDS011;65197;50.164;8.012;2023-08-07T05:10:07;11.13;;;5.32;;
76373;SDS011;65197;50.164;8.012;2023-08-07T05:12:33;13.85;;;5.32;;
76373;SDS011;65197;50.164;8.012;2023-08-07T05:14:59;10.32;;;5.28;;
76373;SDS011;65197;50.164;8.012;2023-08-07T05:17:24;9.93;;;4.93;;
76373;SDS011;65197;50.164;8.012;2023-08-07T05:19:49;12.43;;;4.70;;
76373;SDS011;65197;50.164;8.012;2023-08-07T05:22:15;8.48;;;4.40;;
76373;SDS011;65197;50.164;8.012;2023-08-07T05:24:40;10.65;;;4.13;;
76373;SDS011;65197;50.164;8.012;2023-08-07T05:27:08;7.30;;;4.60;;
76373;SDS011;65197;50.164;8.012;2023-08-07T05:29:34;9.52;;;4.05;;
76373;SDS011;65197;50.164;8.012;2023-08-07T05:32:02;10.45;;;4.47;;
76373;SDS011;65197;50.164;8.012;2023-08-07T05:34:28;9.68;;;4.25;;
76373;SDS011;65197;50.164;8.012;2023-08-07T05:36:53;11.25;;;4.95;;
76373;SDS011;65197;50.164;8.012;2023-08-07T05:39:19;8.85;;;4.90;;
76373;SDS011;65197;50.164;8.012;2023-08-07T05:41:44;7.50;;;3.92;;
76373;SDS011;65197;50.164;8.012;2023-08-07T05:44:10;10.52;;;4.63;;
76373;SDS011;65197;50.164;8.012;2023-08-07T05:46:35;9.98;;;4.35;;
76373;SDS011;65197;50.164;8.012;2023-08-07T05:49:01;9.35;;;3.60;;
76373;SDS011;65197;50.164;8.012;2023-08-07T05:51:26;7.25;;;4.10;;
76373;SDS011;65197;50.164;8.012;2023-08-07T05:53:51;8.40;;;3.80;;
76373;SDS011;65197;50.164;8.012;2023-08-07T05:56:17;6.90;;;4.03;;
76373;SDS011;65197;50.164;8.012;2023-08-07T05:58:43;9.63;;;5.13;;
76373;SDS011;65197;50.164;8.012;2023-08-07T06:01:08;10.30;;;4.15;;
76373;SDS011;65197;50.164;8.012;2023-08-07T06:03:33;8.57;;;4.28;;
76373;SDS011;65197;50.164;8.012;2023-08-07T06:05:59;10.45;;;4.50;;
76373;SDS011;65197;50.164;8.012;2023-08-07T06:08:24;7.32;;;4.30;;
76373;SDS011;65197;50.164;8.012;2023-08-07T06:10:50;10.60;;;4.10;;
76373;SDS011;65197;50.164;8.012;2023-08-07T06:13:15;9.52;;;4.97;;
76373;SDS011;65197;50.164;8.012;2023-08-07T06:15:40;10.45;;;4.43;;
76373;SDS011;65197;50.164;8.012;2023-08-07T06:18:06;8.20;;;4.22;;
76373;SDS011;65197;50.164;8.012;2023-08-07T06:20:31;11.75;;;4.25;;
76373;SDS011;65197;50.164;8.012;2023-08-07T06:22:56;7.20;;;4.18;;
76373;SDS011;65197;50.164;8.012;2023-08-07T06:25:22;7.95;;;3.97;;
76373;SDS011;65197;50.164;8.012;2023-08-07T06:27:47;8.02;;;3.80;;
76373;SDS011;65197;50.164;8.012;2023-08-07T06:30:12;9.73;;;3.70;;
76373;SDS011;65197;50.164;8.012;2023-08-07T06:32:41;7.13;;;3.85;;
76373;SDS011;65197;50.164;8.012;2023-08-07T06:35:07;7.65;;;3.83;;
76373;SDS011;65197;50.164;8.012;2023-08-07T06:37:33;8.43;;;3.67;;
76373;SDS011;65197;50.164;8.012;2023-08-07T06:39:58;6.78;;;4.18;;
76373;SDS011;65197;50.164;8.012;2023-08-07T06:42:24;7.95;;;3.58;;
76373;SDS011;65197;50.164;8.012;2023-08-07T06:44:49;9.77;;;3.80;;
76373;SDS011;65197;50.164;8.012;2023-08-07T06:47:14;9.68;;;3.50;;
76373;SDS011;65197;50.164;8.012;2023-08-07T06:49:40;5.43;;;3.20;;
76373;SDS011;65197;50.164;8.012;2023-08-07T06:52:05;7.93;;;4.00;;
76373;SDS011;65197;50.164;8.012;2023-08-07T06:54:31;5.30;;;3.55;;
76373;SDS011;65197;50.164;8.012;2023-08-07T06:56:56;7.50;;;3.28;;
76373;SDS011;65197;50.164;8.012;2023-08-07T06:59:21;7.55;;;3.42;;
76373;SDS011;65197;50.164;8.012;2023-08-07T07:01:47;7.85;;;3.85;;
76373;SDS011;65197;50.164;8.012;2023-08-07T07:04:13;6.95;;;3.60;;
76373;SDS011;65197;50.164;8.012;2023-08-07T07:06:38;7.57;;;3.35;;
76373;SDS011;65197;50.164;8.012;2023-08-07T07:09:03;6.20;;;3.03;;
76373;SDS011;65197;50.164;8.012;2023-08-07T07:11:29;8.05;;;3.92;;
76373;SDS011;65197;50.164;8.012;2023-08-07T07:13:55;6.47;;;3.10;;
76373;SDS011;65197;50.164;8.012;2023-08-07T07:16:20;6.05;;;3.67;;
76373;SDS011;65197;50.164;8.012;2023-08-07T07:18:50;7.40;;;2.80;;
76373;SDS011;65197;50.164;8.012;2023-08-07T07:21:16;6.30;;;3.03;;
76373;SDS011;65197;50.164;8.012;2023-08-07T07:23:41;5.97;;;3.10;;
76373;SDS011;65197;50.164;8.012;2023-08-07T07:26:07;6.28;;;3.50;;
76373;SDS011;65197;50.164;8.012;2023-08-07T07:28:32;4.85;;;3.30;;
76373;SDS011;65197;50.164;8.012;2023-08-07T07:30:58;6.40;;;3.35;;
76373;SDS011;65197;50.164;8.012;2023-08-07T07:33:23;6.05;;;2.88;;
76373;SDS011;65197;50.164;8.012;2023-08-07T07:35:48;5.18;;;3.65;;
76373;SDS011;65197;50.164;8.012;2023-08-07T07:38:14;5.20;;;3.28;;
76373;SDS011;65197;50.164;8.012;2023-08-07T07:40:40;7.43;;;3.25;;
76373;SDS011;65197;50.164;8.012;2023-08-07T07:43:06;7.40;;;4.57;;
76373;SDS011;65197;50.164;8.012;2023-08-07T07:45:31;6.55;;;3.40;;
76373;SDS011;65197;50.164;8.012;2023-08-07T07:47:58;6.22;;;3.40;;
76373;SDS011;65197;50.164;8.012;2023-08-07T07:50:24;10.07;;;3.85;;
76373;SDS011;65197;50.164;8.012;2023-08-07T07:52:49;7.38;;;2.97;;
76373;SDS011;65197;50.164;8.012;2023-08-07T07:55:15;6.63;;;3.13;;
76373;SDS011;65197;50.164;8.012;2023-08-07T07:57:40;7.45;;;3.25;;
76373;SDS011;65197;50.164;8.012;2023-08-07T08:00:06;7.38;;;2.88;;
76373;SDS011;65197;50.164;8.012;2023-08-07T08:02:35;8.93;;;3.70;;
76373;SDS011;65197;50.164;8.012;2023-08-07T08:05:01;6.93;;;3.70;;
76373;SDS011;65197;50.164;8.012;2023-08-07T08:07:27;6.53;;;3.97;;
76373;SDS011;65197;50.164;8.012;2023-08-07T08:09:52;5.88;;;2.85;;
76373;SDS011;65197;50.164;8.012;2023-08-07T08:12:18;8.27;;;3.08;;
76373;SDS011;65197;50.164;8.012;2023-08-07T08:14:43;7.60;;;4.25;;
76373;SDS011;65197;50.164;8.012;2023-08-07T08:17:08;8.07;;;3.30;;
76373;SDS011;65197;50.164;8.012;2023-08-07T08:19:34;7.85;;;3.38;;
76373;SDS011;65197;50.164;8.012;2023-08-07T08:22:01;6.90;;;3.30;;
76373;SDS011;65197;50.164;8.012;2023-08-07T08:24:26;6.90;;;3.47;;
76373;SDS011;65197;50.164;8.012;2023-08-07T08:26:51;8.38;;;3.60;;
76373;SDS011;65197;50.164;8.012;2023-08-07T08:29:17;6.57;;;3.10;;
76373;SDS011;65197;50.164;8.012;2023-08-07T08:31:42;7.03;;;3.65;;
76373;SDS011;65197;50.164;8.012;2023-08-07T08:34:08;7.07;;;3.17;;
76373;SDS011;65197;50.164;8.012;2023-08-07T08:36:33;7.32;;;3.05;;
76373;SDS011;65197;50.164;8.012;2023-08-07T08:38:58;6.63;;;3.72;;
76373;SDS011;65197;50.164;8.012;2023-08-07T08:41:24;5.07;;;3.35;;
76373;SDS011;65197;50.164;8.012;2023-08-07T08:43:51;6.80;;;3.60;;
76373;SDS011;65197;50.164;8.012;2023-08-07T08:46:19;5.50;;;3.17;;
76373;SDS011;65197;50.164;8.012;2023-08-07T08:48:47;7.85;;;3.20;;
76373;SDS011;65197;50.164;8.012;2023-08-07T08:51:20;6.97;;;3.63;;
76373;SDS011;65197;50.164;8.012;2023-08-07T08:53:46;7.20;;;3.70;;
76373;SDS011;65197;50.164;8.012;2023-08-07T08:56:14;10.27;;;5.07;;
76373;SDS011;65197;50.164;8.012;2023-08-07T08:58:40;7.93;;;3.80;;
76373;SDS011;65197;50.164;8.012;2023-08-07T09:01:06;11.13;;;3.80;;
76373;SDS011;65197;50.164;8.012;2023-08-07T09:03:32;9.05;;;4.00;;
76373;SDS011;65197;50.164;8.012;2023-08-07T09:05:58;7.18;;;3.97;;
76373;SDS011;65197;50.164;8.012;2023-08-07T09:08:25;8.43;;;3.53;;
76373;SDS011;65197;50.164;8.012;2023-08-07T09:10:54;8.63;;;3.90;;
76373;SDS011;65197;50.164;8.012;2023-08-07T09:13:21;5.53;;;3.95;;
76373;SDS011;65197;50.164;8.012;2023-08-07T09:15:48;6.32;;;3.78;;
76373;SDS011;65197;50.164;8.012;2023-08-07T09:18:16;6.75;;;3.85;;
76373;SDS011;65197;50.164;8.012;2023-08-07T09:20:44;6.20;;;3.55;;
76373;SDS011;65197;50.164;8.012;2023-08-07T09:23:09;6.20;;;3.72;;
76373;SDS011;65197;50.164;8.012;2023-08-07T09:25:35;7.63;;;3.45;;
76373;SDS011;65197;50.164;8.012;2023-08-07T09:28:06;6.68;;;3.33;;
76373;SDS011;65197;50.164;8.012;2023-08-07T09:30:32;7.88;;;4.10;;
76373;SDS011;65197;50.164;8.012;2023-08-07T09:33:00;6.13;;;3.70;;
76373;SDS011;65197;50.164;8.012;2023-08-07T09:35:26;8.63;;;3.70;;
76373;SDS011;65197;50.164;8.012;2023-08-07T09:37:52;5.90;;;3.58;;
76373;SDS011;65197;50.164;8.012;2023-08-07T09:40:18;5.68;;;3.20;;
76373;SDS011;65197;50.164;8.012;2023-08-07T09:42:43;6.22;;;3.60;;
76373;SDS011;65197;50.164;8.012;2023-08-07T09:45:24;6.97;;;3.60;;
76373;SDS011;65197;50.164;8.012;2023-08-07T09:48:01;5.85;;;3.60;;
76373;SDS011;65197;50.164;8.012;2023-08-07T09:50:28;8.38;;;3.95;;
76373;SDS011;65197;50.164;8.012;2023-08-07T09:52:54;6.75;;;4.40;;
76373;SDS011;65197;50.164;8.012;2023-08-07T09:55:23;8.00;;;3.95;;
76373;SDS011;65197;50.164;8.012;2023-08-07T09:57:48;7.40;;;4.57;;
76373;SDS011;65197;50.164;8.012;2023-08-07T10:00:15;6.72;;;4.03;;
76373;SDS011;65197;50.164;8.012;2023-08-07T10:02:44;7.30;;;4.10;;
76373;SDS011;65197;50.164;8.012;2023-08-07T10:05:13;5.72;;;3.40;;
76373;SDS011;65197;50.164;8.012;2023-08-07T10:07:39;7.72;;;3.80;;
76373;SDS011;65197;50.164;8.012;2023-08-07T10:10:06;6.05;;;3.30;;
76373;SDS011;65197;50.164;8.012;2023-08-07T10:12:32;6.88;;;3.75;;
76373;SDS011;65197;50.164;8.012;2023-08-07T10:15:00;8.52;;;3.38;;
76373;SDS011;65197;50.164;8.012;2023-08-07T10:17:26;7.05;;;3.35;;
76373;SDS011;65197;50.164;8.012;2023-08-07T10:19:52;7.00;;;3.67;;
76373;SDS011;65197;50.164;8.012;2023-08-07T10:22:21;6.78;;;4.25;;
76373;SDS011;65197;50.164;8.012;2023-08-07T10:24:50;7.75;;;3.58;;
76373;SDS011;65197;50.164;8.012;2023-08-07T10:27:18;5.47;;;3.30;;
76373;SDS011;65197;50.164;8.012;2023-08-07T10:29:45;4.45;;;3.03;;
76373;SDS011;65197;50.164;8.012;2023-08-07T10:32:12;6.88;;;3.10;;
76373;SDS011;65197;50.164;8.012;2023-08-07T10:34:40;5.63;;;2.90;;
76373;SDS011;65197;50.164;8.012;2023-08-07T10:37:21;7.25;;;3.38;;
76373;SDS011;65197;50.164;8.012;2023-08-07T10:40:01;5.45;;;2.90;;
76373;SDS011;65197;50.164;8.012;2023-08-07T10:42:28;6.40;;;3.15;;
76373;SDS011;65197;50.164;8.012;2023-08-07T10:45:00;8.25;;;3.15;;
76373;SDS011;65197;50.164;8.012;2023-08-07T10:47:32;6.03;;;3.22;;
76373;SDS011;65197;50.164;8.012;2023-08-07T10:49:58;6.35;;;3.55;;
76373;SDS011;65197;50.164;8.012;2023-08-07T10:52:24;6.22;;;3.08;;
76373;SDS011;65197;50.164;8.012;2023-08-07T10:54:50;7.70;;;3.17;;
76373;SDS011;65197;50.164;8.012;2023-08-07T10:57:16;8.05;;;3.13;;
76373;SDS011;65197;50.164;8.012;2023-08-07T11:00:03;6.03;;;2.97;;
76373;SDS011;65197;50.164;8.012;2023-08-07T11:02:30;4.80;;;2.50;;
76373;SDS011;65197;50.164;8.012;2023-08-07T11:04:58;5.05;;;2.60;;
76373;SDS011;65197;50.164;8.012;2023-08-07T11:07:30;6.90;;;3.20;;
76373;SDS011;65197;50.164;8.012;2023-08-07T11:09:56;5.78;;;2.75;;
76373;SDS011;65197;50.164;8.012;2023-08-07T11:12:26;7.18;;;3.47;;
76373;SDS011;65197;50.164;8.012;2023-08-07T11:14:52;6.72;;;2.70;;
76373;SDS011;65197;50.164;8.012;2023-08-07T11:17:24;6.40;;;3.13;;
76373;SDS011;65197;50.164;8.012;2023-08-07T11:19:50;4.93;;;2.53;;
76373;SDS011;65197;50.164;8.012;2023-08-07T11:22:16;5.65;;;3.08;;
76373;SDS011;65197;50.164;8.012;2023-08-07T11:24:41;4.82;;;2.58;;
76373;SDS011;65197;50.164;8.012;2023-08-07T11:27:07;7.00;;;2.70;;
76373;SDS011;65197;50.164;8.012;2023-08-07T11:29:33;6.43;;;2.78;;
76373;SDS011;65197;50.164;8.012;2023-08-07T11:31:58;9.20;;;2.90;;
76373;SDS011;65197;50.164;8.012;2023-08-07T11:34:24;4.80;;;2.67;;
76373;SDS011;65197;50.164;8.012;2023-08-07T11:36:50;6.40;;;2.45;;
76373;SDS011;65197;50.164;8.012;2023-08-07T11:39:16;6.50;;;2.80;;
76373;SDS011;65197;50.164;8.012;2023-08-07T11:41:42;5.47;;;2.78;;
76373;SDS011;65197;50.164;8.012;2023-08-07T11:44:09;8.23;;;3.50;;
76373;SDS011;65197;50.164;8.012;2023-08-07T11:46:35;5.30;;;2.65;;
76373;SDS011;65197;50.164;8.012;2023-08-07T11:49:01;5.03;;;2.47;;
76373;SDS011;65197;50.164;8.012;2023-08-07T11:51:28;7.15;;;2.80;;
76373;SDS011;65197;50.164;8.012;2023-08-07T11:53:54;5.07;;;2.70;;
76373;SDS011;65197;50.164;8.012;2023-08-07T11:56:22;5.88;;;2.75;;
76373;SDS011;65197;50.164;8.012;2023-08-07T11:58:48;4.60;;;2.20;;
76373;SDS011;65197;50.164;8.012;2023-08-07T12:01:17;3.60;;;2.33;;
76373;SDS011;65197;50.164;8.012;2023-08-07T12:03:52;4.53;;;2.70;;
76373;SDS011;65197;50.164;8.012;2023-08-07T12:06:19;7.00;;;2.45;;
76373;SDS011;65197;50.164;8.012;2023-08-07T12:08:47;4.28;;;2.45;;
76373;SDS011;65197;50.164;8.012;2023-08-07T12:11:14;4.72;;;2.60;;
76373;SDS011;65197;50.164;8.012;2023-08-07T12:13:40;3.80;;;2.53;;
76373;SDS011;65197;50.164;8.012;2023-08-07T12:16:07;6.53;;;3.40;;
76373;SDS011;65197;50.164;8.012;2023-08-07T12:18:33;5.53;;;2.17;;
76373;SDS011;65197;50.164;8.012;2023-08-07T12:21:01;9.43;;;2.55;;
76373;SDS011;65197;50.164;8.012;2023-08-07T12:23:29;6.18;;;2.50;;
76373;SDS011;65197;50.164;8.012;2023-08-07T12:25:54;8.00;;;2.50;;
76373;SDS011;65197;50.164;8.012;2023-08-07T12:28:20;6.13;;;2.28;;
76373;SDS011;65197;50.164;8.012;2023-08-07T12:30:46;7.20;;;2.58;;
76373;SDS011;65197;50.164;8.012;2023-08-07T12:33:13;5.97;;;2.60;;
76373;SDS011;65197;50.164;8.012;2023-08-07T12:35:39;6.10;;;2.33;;
76373;SDS011;65197;50.164;8.012;2023-08-07T12:38:05;5.65;;;2.53;;
76373;SDS011;65197;50.164;8.012;2023-08-07T12:40:31;5.50;;;2.38;;
76373;SDS011;65197;50.164;8.012;2023-08-07T12:42:57;4.75;;;2.42;;
76373;SDS011;65197;50.164;8.012;2023-08-07T12:45:23;5.18;;;2.33;;
76373;SDS011;65197;50.164;8.012;2023-08-07T12:47:49;5.63;;;2.50;;
76373;SDS011;65197;50.164;8.012;2023-08-07T12:50:15;5.07;;;2.78;;
76373;SDS011;65197;50.164;8.012;2023-08-07T12:52:40;6.47;;;2.40;;
76373;SDS011;65197;50.164;8.012;2023-08-07T12:55:06;5.60;;;2.60;;
76373;SDS011;65197;50.164;8.012;2023-08-07T12:57:32;5.53;;;2.45;;
76373;SDS011;65197;50.164;8.012;2023-08-07T12:59:58;5.90;;;2.35;;
76373;SDS011;65197;50.164;8.012;2023-08-07T13:02:23;3.95;;;2.30;;
76373;SDS011;65197;50.164;8.012;2023-08-07T13:04:49;6.22;;;2.20;;
76373;SDS011;65197;50.164;8.012;2023-08-07T13:07:14;6.40;;;2.75;;
76373;SDS011;65197;50.164;8.012;2023-08-07T13:09:39;8.52;;;2.13;;
76373;SDS011;65197;50.164;8.012;2023-08-07T13:12:05;5.70;;;2.88;;
76373;SDS011;65197;50.164;8.012;2023-08-07T13:14:30;4.07;;;2.17;;
76373;SDS011;65197;50.164;8.012;2023-08-07T13:16:56;5.80;;;2.10;;
76373;SDS011;65197;50.164;8.012;2023-08-07T13:19:21;4.00;;;1.98;;
76373;SDS011;65197;50.164;8.012;2023-08-07T13:21:47;6.32;;;2.60;;
76373;SDS011;65197;50.164;8.012;2023-08-07T13:24:12;4.80;;;2.13;;
76373;SDS011;65197;50.164;8.012;2023-08-07T13:26:37;5.60;;;1.90;;
76373;SDS011;65197;50.164;8.012;2023-08-07T13:29:09;3.05;;;1.70;;
76373;SDS011;65197;50.164;8.012;2023-08-07T13:31:35;3.17;;;2.00;;
76373;SDS011;65197;50.164;8.012;2023-08-07T13:34:00;4.97;;;2.00;;
76373;SDS011;65197;50.164;8.012;2023-08-07T13:36:31;3.03;;;1.88;;
76373;SDS011;65197;50.164;8.012;2023-08-07T13:38:57;6.70;;;2.05;;
76373;SDS011;65197;50.164;8.012;2023-08-07T13:41:23;6.20;;;2.42;;
76373;SDS011;65197;50.164;8.012;2023-08-07T13:43:48;4.57;;;1.98;;
76373;SDS011;65197;50.164;8.012;2023-08-07T13:46:13;4.60;;;2.20;;
76373;SDS011;65197;50.164;8.012;2023-08-07T13:48:39;4.30;;;2.00;;
76373;SDS011;65197;50.164;8.012;2023-08-07T13:51:04;4.38;;;2.58;;
76373;SDS011;65197;50.164;8.012;2023-08-07T13:53:32;3.83;;;2.10;;
76373;SDS011;65197;50.164;8.012;2023-08-07T13:55:57;4.80;;;2.45;;
76373;SDS011;65197;50.164;8.012;2023-08-07T13:58:22;4.82;;;2.20;;
76373;SDS011;65197;50.164;8.012;2023-08-07T14:00:48;7.53;;;2.20;;
76373;SDS011;65197;50.164;8.012;2023-08-07T14:03:13;8.32;;;2.22;;
76373;SDS011;65197;50.164;8.012;2023-08-07T14:05:39;5.30;;;2.20;;
76373;SDS011;65197;50.164;8.012;2023-08-07T14:08:04;5.88;;;2.55;;
76373;SDS011;65197;50.164;8.012;2023-08-07T14:10:30;4.68;;;2.20;;
76373;SDS011;65197;50.164;8.012;2023-08-07T14:12:55;4.05;;;2.17;;
76373;SDS011;65197;50.164;8.012;2023-08-07T14:15:21;5.03;;;2.40;;
76373;SDS011;65197;50.164;8.012;2023-08-07T14:17:46;4.57;;;2.45;;
76373;SDS011;65197;50.164;8.012;2023-08-07T14:20:11;5.53;;;2.42;;
76373;SDS011;65197;50.164;8.012;2023-08-07T14:22:37;4.97;;;2.38;;
76373;SDS011;65197;50.164;8.012;2023-08-07T14:25:03;4.93;;;2.45;;
76373;SDS011;65197;50.164;8.012;2023-08-07T14:27:30;5.03;;;2.50;;
76373;SDS011;65197;50.164;8.012;2023-08-07T14:29:55;3.15;;;2.05;;
76373;SDS011;65197;50.164;8.012;2023-08-07T14:32:21;4.75;;;2.13;;
76373;SDS011;65197;50.164;8.012;2023-08-07T14:34:55;6.03;;;2.25;;
76373;SDS011;65197;50.164;8.012;2023-08-07T14:37:20;7.22;;;2.45;;
76373;SDS011;65197;50.164;8.012;2023-08-07T14:39:46;4.97;;;2.30;;
76373;SDS011;65197;50.164;8.012;2023-08-07T14:42:11;5.53;;;2.30;;